Lady Jeanete — HKAH9 — position and weather

sailwx.info

Track history (hours):
 
Tides and Currents Weather Stations Pressure Air Temp Water Temp Dewpoint Dewpoint Depression Visibility Wind Speed Wind Dir Waves Ship Positions

Lady Jeanete

Last reported at 2018-Feb-22 18:59 UTC. Time now 2018-Feb-22 19:13 UTC.
Position N 11°03' W 074°50'.

MMSI: 730005000.

Date/timePositionNaut miles runAvg speedWind from/ knotsBaromVisibWave heightAir tempDewpointWater temp
2018-Feb-22 18:59N 11°03' W 074°50'0 0.0
2018-Feb-22 18:30N 11°03' W 074°50'0 0.0
2018-Feb-22 18:01N 11°03' W 074°50'0 0.0
2018-Feb-22 17:31N 11°03' W 074°50'0 0.0
2018-Feb-22 17:00N 11°03' W 074°50'0 0.0
2018-Feb-22 16:30N 11°03' W 074°50'0 0.0
2018-Feb-22 16:00N 11°03' W 074°50'0 0.0
2018-Feb-22 15:30N 11°03' W 074°50'0 0.0
2018-Feb-22 15:00N 11°03' W 074°50'0 0.0
2018-Feb-22 14:30N 11°03' W 074°50'0 0.0
2018-Feb-22 13:59N 11°03' W 074°50'0 0.0
2018-Feb-22 13:30N 11°03' W 074°50'0 0.1
2018-Feb-22 13:00N 11°03' W 074°50'0 0.0
2018-Feb-22 12:31N 11°03' W 074°50'0 0.0
2018-Feb-22 12:01N 11°03' W 074°50'0 0.0
2018-Feb-21 22:00N 11°03' W 074°50'0 0.0
2018-Feb-21 21:28N 11°03' W 074°50'0 0.0
2018-Feb-21 21:00N 11°03' W 074°50'0 0.0
2018-Feb-21 20:27N 11°03' W 074°50'0 0.0
2018-Feb-21 19:57N 11°03' W 074°50'0 0.0
2018-Feb-21 19:30N 11°03' W 074°50'0 0.0
2018-Feb-21 19:00N 11°03' W 074°50'0 0.0
2018-Feb-21 18:30N 11°03' W 074°50'0 0.0
2018-Feb-21 18:00N 11°03' W 074°50'0 0.0
2018-Feb-21 17:31N 11°03' W 074°50'0 0.1
2018-Feb-21 17:01N 11°03' W 074°50'1 0.5
2018-Feb-21 14:05N 11°02' W 074°49'0 0.0
2018-Feb-21 13:34N 11°02' W 074°49'0 0.0
2018-Feb-21 13:30N 11°02' W 074°49'1 0.1
2018-Feb-20 21:57N 11°03' W 074°50'0 0.1
2018-Feb-20 21:29N 11°03' W 074°50'0 0.3
2018-Feb-20 21:00N 11°03' W 074°50'3 5.1
2018-Feb-20 20:28N 11°06' W 074°51'2 3.2
2018-Feb-20 19:59N 11°07' W 074°52'2 4.1
2018-Feb-20 19:30N 11°05' W 074°51'3 6.4
2018-Feb-20 19:00N 11°03' W 074°49'0 0.6
2018-Feb-20 18:30N 11°02' W 074°49'0 0.1
2018-Feb-20 18:00N 11°02' W 074°49'0 0.0
2018-Feb-20 17:30N 11°02' W 074°49'0 0.0
2018-Feb-20 17:01N 11°02' W 074°49'0 0.0
2018-Feb-20 16:30N 11°02' W 074°49'0 0.0
2018-Feb-20 16:00N 11°02' W 074°49'1 2.9
2018-Feb-20 15:30N 11°03' W 074°50'0 0.0
2018-Feb-20 15:00N 11°03' W 074°50'1 2.8
2018-Feb-20 14:29N 11°02' W 074°49'0 0.0
2018-Feb-20 14:00N 11°02' W 074°49'0 0.0
2018-Feb-20 13:30N 11°02' W 074°49'0 0.3
2018-Feb-20 13:01N 11°02' W 074°49'0 0.0
2018-Feb-20 12:30N 11°02' W 074°49'0 0.0
2018-Feb-19 21:18N 11°02' W 074°49'2 4.8
2018-Feb-19 20:59N 11°04' W 074°50'2 1.3
2018-Feb-19 19:45N 11°02' W 074°49'0 0.0
2018-Feb-19 19:30N 11°02' W 074°49'0 0.0
2018-Feb-19 19:00N 11°02' W 074°49'0 0.0
2018-Feb-19 18:30N 11°02' W 074°49'0 0.0
2018-Feb-19 18:00N 11°02' W 074°49'0 0.0
2018-Feb-19 17:31N 11°02' W 074°49'0 0.0
2018-Feb-19 17:00N 11°02' W 074°49'0 0.0
2018-Feb-19 16:30N 11°02' W 074°49'0 0.0
2018-Feb-19 15:57N 11°02' W 074°49'0 0.0
2018-Feb-19 15:15N 11°02' W 074°49'0 0.0
2018-Feb-19 15:00N 11°02' W 074°49'0 0.0
2018-Feb-19 14:04N 11°02' W 074°49'0 0.0
2018-Feb-19 14:00N 11°02' W 074°49'0 0.0
2018-Feb-19 13:29N 11°02' W 074°49'0 0.0
2018-Feb-19 13:00N 11°02' W 074°49'0 0.0
2018-Feb-19 12:27N 11°02' W 074°49'1 3.1
2018-Feb-19 12:00N 11°03' W 074°50'0 0.2
2018-Feb-19 11:28N 11°03' W 074°50'1 0.9
2018-Feb-19 09:54N 11°02' W 074°49'0 0.0
2018-Feb-19 09:24N 11°02' W 074°49'0 0.0
2018-Feb-19 08:58N 11°02' W 074°49'0 0.0
2018-Feb-19 08:22N 11°02' W 074°49'0 0.0
2018-Feb-19 07:58N 11°02' W 074°49'0 0.0
2018-Feb-19 07:30N 11°02' W 074°49'0 0.0
2018-Feb-19 06:46N 11°02' W 074°49'0 0.0
2018-Feb-19 06:31N 11°02' W 074°49'0 0.0
2018-Feb-18 20:37N 11°02' W 074°49'1 4.9
2018-Feb-18 20:28N 11°03' W 074°50'2 3.5
2018-Feb-18 20:00N 11°04' W 074°51'2 4.5
2018-Feb-18 19:30N 11°02' W 074°49'0 0.0
2018-Feb-18 18:59N 11°02' W 074°49'0 0.0
2018-Feb-18 18:29N 11°02' W 074°49'0 0.0
2018-Feb-18 18:01N 11°02' W 074°49'0 0.0
2018-Feb-18 17:29N 11°02' W 074°49'0 0.0
2018-Feb-18 16:59N 11°02' W 074°49'0 0.0
2018-Feb-18 16:29N 11°02' W 074°49'0 0.0
2018-Feb-18 16:00N 11°02' W 074°49'0 0.0
2018-Feb-18 15:30N 11°02' W 074°49'0 0.0
2018-Feb-18 15:00N 11°02' W 074°49'0 0.0
2018-Feb-18 14:30N 11°02' W 074°49'0 0.0
2018-Feb-18 14:00N 11°02' W 074°49'0 0.0
2018-Feb-18 13:30N 11°02' W 074°49'0 0.0
2018-Feb-18 12:59N 11°02' W 074°49'0 0.0
2018-Feb-18 12:30N 11°02' W 074°49'2 3.7
2018-Feb-18 12:00N 11°04' W 074°50'1 0.1
2018-Feb-17 20:59N 11°03' W 074°50'2 3.2
2018-Feb-17 20:30N 11°04' W 074°51'1 1.6
2018-Feb-17 19:58N 11°03' W 074°50'1 0.4
2018-Feb-17 16:54N 11°02' W 074°49'0 0.0
2018-Feb-17 15:15N 11°02' W 074°49'0 0.0
2018-Feb-17 14:52N 11°02' W 074°49'0 0.0
2018-Feb-17 14:24N 11°02' W 074°49'0 0.0
2018-Feb-17 13:58N 11°02' W 074°49'0 0.0
2018-Feb-17 13:29N 11°02' W 074°49'0 0.0
2018-Feb-17 13:00N 11°02' W 074°49'0 0.0
2018-Feb-17 05:39N 11°02' W 074°49'0 0.0
2018-Feb-17 05:29N 11°02' W 074°49'0 0.0
2018-Feb-17 05:00N 11°02' W 074°49'0 0.0
2018-Feb-17 04:30N 11°02' W 074°49'0 0.0
2018-Feb-17 04:00N 11°02' W 074°49'0 0.0
2018-Feb-17 03:30N 11°02' W 074°49'0 0.0
2018-Feb-17 03:00N 11°02' W 074°49'0 0.0
2018-Feb-17 02:29N 11°02' W 074°49'0 0.0
2018-Feb-17 02:00N 11°02' W 074°49'0 0.0
2018-Feb-17 01:31N 11°02' W 074°49'0 0.0
2018-Feb-17 00:59N 11°02' W 074°49'0 0.0
2018-Feb-17 00:27N 11°02' W 074°49'0 0.0
2018-Feb-17 00:00N 11°02' W 074°49'0 0.0
2018-Feb-16 23:28N 11°02' W 074°49'0 0.0
2018-Feb-16 23:00N 11°02' W 074°49'0 0.0
2018-Feb-16 22:29N 11°02' W 074°49'0 0.0
2018-Feb-16 22:00N 11°02' W 074°49'0 0.0
2018-Feb-16 21:29N 11°02' W 074°49'0 0.0
2018-Feb-16 21:01N 11°02' W 074°49'0 0.0
2018-Feb-16 20:30N 11°02' W 074°49'0 0.0
2018-Feb-16 20:00N 11°02' W 074°49'1 2.7
2018-Feb-16 19:30N 11°03' W 074°50'0 0.0
2018-Feb-16 19:00N 11°03' W 074°50'0 0.0
2018-Feb-16 18:30N 11°03' W 074°50'0 0.0
2018-Feb-16 18:00N 11°03' W 074°50'0 0.0
2018-Feb-16 17:30N 11°03' W 074°50'0 0.0
2018-Feb-16 16:59N 11°03' W 074°50'0 0.0
2018-Feb-16 16:31N 11°03' W 074°50'0 0.0
2018-Feb-16 16:00N 11°03' W 074°50'0 0.0
2018-Feb-16 15:30N 11°03' W 074°50'0 0.0
2018-Feb-16 14:59N 11°03' W 074°50'0 0.0
2018-Feb-16 14:30N 11°03' W 074°50'0 0.0
2018-Feb-16 13:58N 11°03' W 074°50'0 0.1
2018-Feb-16 13:30N 11°03' W 074°50'1 2.5
2018-Feb-16 12:57N 11°02' W 074°49'0 0.0
2018-Feb-16 12:31N 11°02' W 074°49'0 0.0
2018-Feb-16 11:59N 11°02' W 074°49'0 0.0
2018-Feb-16 11:28N 11°02' W 074°49'0 0.0
2018-Feb-15 18:28N 11°02' W 074°49'0 0.0
2018-Feb-15 17:57N 11°02' W 074°49'0 0.0
2018-Feb-15 16:09N 11°02' W 074°49'0 0.0
2018-Feb-15 15:59N 11°02' W 074°49'0 0.0
2018-Feb-15 15:30N 11°02' W 074°49'0 0.0
2018-Feb-15 12:43N 11°02' W 074°49'0 0.0
2018-Feb-15 12:30N 11°02' W 074°49'0 0.0
2018-Feb-15 12:00N 11°02' W 074°49'0 0.0
2018-Feb-15 06:22N 11°02' W 074°49'0 0.0
2018-Feb-15 06:00N 11°02' W 074°49'0 0.0
2018-Feb-14 20:59N 11°02' W 074°49'0 0.1
2018-Feb-14 20:30N 11°02' W 074°49'0 0.0
2018-Feb-14 19:57N 11°02' W 074°49'0 0.0
2018-Feb-14 19:30N 11°02' W 074°49'0 0.0
2018-Feb-14 19:00N 11°02' W 074°49'0 0.0
2018-Feb-14 18:30N 11°02' W 074°49'0 0.0
2018-Feb-14 18:00N 11°02' W 074°49'0 0.0
2018-Feb-14 17:31N 11°02' W 074°49'0 0.0
2018-Feb-14 17:00N 11°02' W 074°49'0 0.0
2018-Feb-14 16:30N 11°02' W 074°49'0 0.0
2018-Feb-14 15:59N 11°02' W 074°49'0 0.0
2018-Feb-14 15:30N 11°02' W 074°49'0 0.0
2018-Feb-14 15:01N 11°02' W 074°49'0 0.0
2018-Feb-14 14:30N 11°02' W 074°49'0 0.0
2018-Feb-14 14:00N 11°02' W 074°49'0 0.0
2018-Feb-14 13:30N 11°02' W 074°49'0 0.0
2018-Feb-14 13:00N 11°02' W 074°49'0 0.0
2018-Feb-14 12:30N 11°02' W 074°49'0 0.0
2018-Feb-13 22:12N 11°02' W 074°49'0 0.0
2018-Feb-13 21:47N 11°02' W 074°49'0 0.0
2018-Feb-13 21:29N 11°02' W 074°49'0 0.0
2018-Feb-13 20:59N 11°02' W 074°49'0 0.0
2018-Feb-13 20:26N 11°02' W 074°49'0 0.0
2018-Feb-13 19:59N 11°02' W 074°49'0 0.0
2018-Feb-13 19:30N 11°02' W 074°49'0 0.0
2018-Feb-13 19:00N 11°02' W 074°49'0 0.0
2018-Feb-13 18:30N 11°02' W 074°49'0 0.0
2018-Feb-13 18:00N 11°02' W 074°49'0 0.0
2018-Feb-13 17:30N 11°02' W 074°49'0 0.0
2018-Feb-13 17:00N 11°02' W 074°49'0 0.0
2018-Feb-13 16:30N 11°02' W 074°49'0 0.0
2018-Feb-13 16:00N 11°02' W 074°49'0 0.0
2018-Feb-13 15:30N 11°02' W 074°49'0 0.0
2018-Feb-13 15:01N 11°02' W 074°49'0 0.0
2018-Feb-13 14:21N 11°02' W 074°49'0 0.0
2018-Feb-13 13:58N 11°02' W 074°49'0 0.0
2018-Feb-13 13:31N 11°02' W 074°49'0 0.0
2018-Feb-13 12:59N 11°02' W 074°49'0 0.0
2018-Feb-13 12:30N 11°02' W 074°49'0 0.0
2018-Feb-12 21:57N 11°02' W 074°49'0 0.0
2018-Feb-12 21:25N 11°02' W 074°49'0 0.0
2018-Feb-12 20:49N 11°02' W 074°49'0 0.0
2018-Feb-12 20:26N 11°02' W 074°49'0 0.0
2018-Feb-12 20:00N 11°02' W 074°49'0 0.0
2018-Feb-12 19:29N 11°02' W 074°49'  
Track history (hours):
 
Tides and Currents Weather Stations Pressure Air Temp Water Temp Dewpoint Dewpoint Depression Visibility Wind Speed Wind Dir Waves Ship Positions

Lady Jeanete

Last reported at 2018-Feb-22 18:59 UTC. Time now 2018-Feb-22 19:13 UTC.
Position N 11°03' W 074°50'.

MMSI: 730005000.

Date/timePositionNaut miles runAvg speedWind from/ knotsBaromVisibWave heightAir tempDewpointWater temp
2018-Feb-22 18:59N 11°03' W 074°50'0 0.0
2018-Feb-22 18:30N 11°03' W 074°50'0 0.0
2018-Feb-22 18:01N 11°03' W 074°50'0 0.0
2018-Feb-22 17:31N 11°03' W 074°50'0 0.0
2018-Feb-22 17:00N 11°03' W 074°50'0 0.0
2018-Feb-22 16:30N 11°03' W 074°50'0 0.0
2018-Feb-22 16:00N 11°03' W 074°50'0 0.0
2018-Feb-22 15:30N 11°03' W 074°50'0 0.0
2018-Feb-22 15:00N 11°03' W 074°50'0 0.0
2018-Feb-22 14:30N 11°03' W 074°50'0 0.0
2018-Feb-22 13:59N 11°03' W 074°50'0 0.0
2018-Feb-22 13:30N 11°03' W 074°50'0 0.1
2018-Feb-22 13:00N 11°03' W 074°50'0 0.0
2018-Feb-22 12:31N 11°03' W 074°50'0 0.0
2018-Feb-22 12:01N 11°03' W 074°50'0 0.0
2018-Feb-21 22:00N 11°03' W 074°50'0 0.0
2018-Feb-21 21:28N 11°03' W 074°50'0 0.0
2018-Feb-21 21:00N 11°03' W 074°50'0 0.0
2018-Feb-21 20:27N 11°03' W 074°50'0 0.0
2018-Feb-21 19:57N 11°03' W 074°50'0 0.0
2018-Feb-21 19:30N 11°03' W 074°50'0 0.0
2018-Feb-21 19:00N 11°03' W 074°50'0 0.0
2018-Feb-21 18:30N 11°03' W 074°50'0 0.0
2018-Feb-21 18:00N 11°03' W 074°50'0 0.0
2018-Feb-21 17:31N 11°03' W 074°50'0 0.1
2018-Feb-21 17:01N 11°03' W 074°50'1 0.5
2018-Feb-21 14:05N 11°02' W 074°49'0 0.0
2018-Feb-21 13:34N 11°02' W 074°49'0 0.0
2018-Feb-21 13:30N 11°02' W 074°49'1 0.1
2018-Feb-20 21:57N 11°03' W 074°50'0 0.1
2018-Feb-20 21:29N 11°03' W 074°50'0 0.3
2018-Feb-20 21:00N 11°03' W 074°50'3 5.1
2018-Feb-20 20:28N 11°06' W 074°51'2 3.2
2018-Feb-20 19:59N 11°07' W 074°52'2 4.1
2018-Feb-20 19:30N 11°05' W 074°51'3 6.4
2018-Feb-20 19:00N 11°03' W 074°49'0 0.6
2018-Feb-20 18:30N 11°02' W 074°49'0 0.1
2018-Feb-20 18:00N 11°02' W 074°49'0 0.0
2018-Feb-20 17:30N 11°02' W 074°49'0 0.0
2018-Feb-20 17:01N 11°02' W 074°49'0 0.0
2018-Feb-20 16:30N 11°02' W 074°49'0 0.0
2018-Feb-20 16:00N 11°02' W 074°49'1 2.9
2018-Feb-20 15:30N 11°03' W 074°50'0 0.0
2018-Feb-20 15:00N 11°03' W 074°50'1 2.8
2018-Feb-20 14:29N 11°02' W 074°49'0 0.0
2018-Feb-20 14:00N 11°02' W 074°49'0 0.0
2018-Feb-20 13:30N 11°02' W 074°49'0 0.3
2018-Feb-20 13:01N 11°02' W 074°49'0 0.0
2018-Feb-20 12:30N 11°02' W 074°49'0 0.0
2018-Feb-19 21:18N 11°02' W 074°49'2 4.8
2018-Feb-19 20:59N 11°04' W 074°50'2 1.3
2018-Feb-19 19:45N 11°02' W 074°49'0 0.0
2018-Feb-19 19:30N 11°02' W 074°49'0 0.0
2018-Feb-19 19:00N 11°02' W 074°49'0 0.0
2018-Feb-19 18:30N 11°02' W 074°49'0 0.0
2018-Feb-19 18:00N 11°02' W 074°49'0 0.0
2018-Feb-19 17:31N 11°02' W 074°49'0 0.0
2018-Feb-19 17:00N 11°02' W 074°49'0 0.0
2018-Feb-19 16:30N 11°02' W 074°49'0 0.0
2018-Feb-19 15:57N 11°02' W 074°49'0 0.0
2018-Feb-19 15:15N 11°02' W 074°49'0 0.0
2018-Feb-19 15:00N 11°02' W 074°49'0 0.0
2018-Feb-19 14:04N 11°02' W 074°49'0 0.0
2018-Feb-19 14:00N 11°02' W 074°49'0 0.0
2018-Feb-19 13:29N 11°02' W 074°49'0 0.0
2018-Feb-19 13:00N 11°02' W 074°49'0 0.0
2018-Feb-19 12:27N 11°02' W 074°49'1 3.1
2018-Feb-19 12:00N 11°03' W 074°50'0 0.2
2018-Feb-19 11:28N 11°03' W 074°50'1 0.9
2018-Feb-19 09:54N 11°02' W 074°49'0 0.0
2018-Feb-19 09:24N 11°02' W 074°49'0 0.0
2018-Feb-19 08:58N 11°02' W 074°49'0 0.0
2018-Feb-19 08:22N 11°02' W 074°49'0 0.0
2018-Feb-19 07:58N 11°02' W 074°49'0 0.0
2018-Feb-19 07:30N 11°02' W 074°49'0 0.0
2018-Feb-19 06:46N 11°02' W 074°49'0 0.0
2018-Feb-19 06:31N 11°02' W 074°49'0 0.0
2018-Feb-18 20:37N 11°02' W 074°49'1 4.9
2018-Feb-18 20:28N 11°03' W 074°50'2 3.5
2018-Feb-18 20:00N 11°04' W 074°51'2 4.5
2018-Feb-18 19:30N 11°02' W 074°49'0 0.0
2018-Feb-18 18:59N 11°02' W 074°49'0 0.0
2018-Feb-18 18:29N 11°02' W 074°49'0 0.0
2018-Feb-18 18:01N 11°02' W 074°49'0 0.0
2018-Feb-18 17:29N 11°02' W 074°49'0 0.0
2018-Feb-18 16:59N 11°02' W 074°49'0 0.0
2018-Feb-18 16:29N 11°02' W 074°49'0 0.0
2018-Feb-18 16:00N 11°02' W 074°49'0 0.0
2018-Feb-18 15:30N 11°02' W 074°49'0 0.0
2018-Feb-18 15:00N 11°02' W 074°49'0 0.0
2018-Feb-18 14:30N 11°02' W 074°49'0 0.0
2018-Feb-18 14:00N 11°02' W 074°49'0 0.0
2018-Feb-18 13:30N 11°02' W 074°49'0 0.0
2018-Feb-18 12:59N 11°02' W 074°49'0 0.0
2018-Feb-18 12:30N 11°02' W 074°49'2 3.7
2018-Feb-18 12:00N 11°04' W 074°50'1 0.1
2018-Feb-17 20:59N 11°03' W 074°50'2 3.2
2018-Feb-17 20:30N 11°04' W 074°51'1 1.6
2018-Feb-17 19:58N 11°03' W 074°50'1 0.4
2018-Feb-17 16:54N 11°02' W 074°49'0 0.0
2018-Feb-17 15:15N 11°02' W 074°49'0 0.0
2018-Feb-17 14:52N 11°02' W 074°49'0 0.0
2018-Feb-17 14:24N 11°02' W 074°49'0 0.0
2018-Feb-17 13:58N 11°02' W 074°49'0 0.0
2018-Feb-17 13:29N 11°02' W 074°49'0 0.0
2018-Feb-17 13:00N 11°02' W 074°49'0 0.0
2018-Feb-17 05:39N 11°02' W 074°49'0 0.0
2018-Feb-17 05:29N 11°02' W 074°49'0 0.0
2018-Feb-17 05:00N 11°02' W 074°49'0 0.0
2018-Feb-17 04:30N 11°02' W 074°49'0 0.0
2018-Feb-17 04:00N 11°02' W 074°49'0 0.0
2018-Feb-17 03:30N 11°02' W 074°49'0 0.0
2018-Feb-17 03:00N 11°02' W 074°49'0 0.0
2018-Feb-17 02:29N 11°02' W 074°49'0 0.0
2018-Feb-17 02:00N 11°02' W 074°49'0 0.0
2018-Feb-17 01:31N 11°02' W 074°49'0 0.0
2018-Feb-17 00:59N 11°02' W 074°49'0 0.0
2018-Feb-17 00:27N 11°02' W 074°49'0 0.0
2018-Feb-17 00:00N 11°02' W 074°49'0 0.0
2018-Feb-16 23:28N 11°02' W 074°49'0 0.0
2018-Feb-16 23:00N 11°02' W 074°49'0 0.0
2018-Feb-16 22:29N 11°02' W 074°49'0 0.0
2018-Feb-16 22:00N 11°02' W 074°49'0 0.0
2018-Feb-16 21:29N 11°02' W 074°49'0 0.0
2018-Feb-16 21:01N 11°02' W 074°49'0 0.0
2018-Feb-16 20:30N 11°02' W 074°49'0 0.0
2018-Feb-16 20:00N 11°02' W 074°49'1 2.7
2018-Feb-16 19:30N 11°03' W 074°50'0 0.0
2018-Feb-16 19:00N 11°03' W 074°50'0 0.0
2018-Feb-16 18:30N 11°03' W 074°50'0 0.0
2018-Feb-16 18:00N 11°03' W 074°50'0 0.0
2018-Feb-16 17:30N 11°03' W 074°50'0 0.0
2018-Feb-16 16:59N 11°03' W 074°50'0 0.0
2018-Feb-16 16:31N 11°03' W 074°50'0 0.0
2018-Feb-16 16:00N 11°03' W 074°50'0 0.0
2018-Feb-16 15:30N 11°03' W 074°50'0 0.0
2018-Feb-16 14:59N 11°03' W 074°50'0 0.0
2018-Feb-16 14:30N 11°03' W 074°50'0 0.0
2018-Feb-16 13:58N 11°03' W 074°50'0 0.1
2018-Feb-16 13:30N 11°03' W 074°50'1 2.5
2018-Feb-16 12:57N 11°02' W 074°49'0 0.0
2018-Feb-16 12:31N 11°02' W 074°49'0 0.0
2018-Feb-16 11:59N 11°02' W 074°49'0 0.0
2018-Feb-16 11:28N 11°02' W 074°49'0 0.0
2018-Feb-15 18:28N 11°02' W 074°49'0 0.0
2018-Feb-15 17:57N 11°02' W 074°49'0 0.0
2018-Feb-15 16:09N 11°02' W 074°49'0 0.0
2018-Feb-15 15:59N 11°02' W 074°49'0 0.0
2018-Feb-15 15:30N 11°02' W 074°49'0 0.0
2018-Feb-15 12:43N 11°02' W 074°49'0 0.0
2018-Feb-15 12:30N 11°02' W 074°49'0 0.0
2018-Feb-15 12:00N 11°02' W 074°49'0 0.0
2018-Feb-15 06:22N 11°02' W 074°49'0 0.0
2018-Feb-15 06:00N 11°02' W 074°49'0 0.0
2018-Feb-14 20:59N 11°02' W 074°49'0 0.1
2018-Feb-14 20:30N 11°02' W 074°49'0 0.0
2018-Feb-14 19:57N 11°02' W 074°49'0 0.0
2018-Feb-14 19:30N 11°02' W 074°49'0 0.0
2018-Feb-14 19:00N 11°02' W 074°49'0 0.0
2018-Feb-14 18:30N 11°02' W 074°49'0 0.0
2018-Feb-14 18:00N 11°02' W 074°49'0 0.0
2018-Feb-14 17:31N 11°02' W 074°49'0 0.0
2018-Feb-14 17:00N 11°02' W 074°49'0 0.0
2018-Feb-14 16:30N 11°02' W 074°49'0 0.0
2018-Feb-14 15:59N 11°02' W 074°49'0 0.0
2018-Feb-14 15:30N 11°02' W 074°49'0 0.0
2018-Feb-14 15:01N 11°02' W 074°49'0 0.0
2018-Feb-14 14:30N 11°02' W 074°49'0 0.0
2018-Feb-14 14:00N 11°02' W 074°49'0 0.0
2018-Feb-14 13:30N 11°02' W 074°49'0 0.0
2018-Feb-14 13:00N 11°02' W 074°49'0 0.0
2018-Feb-14 12:30N 11°02' W 074°49'0 0.0
2018-Feb-13 22:12N 11°02' W 074°49'0 0.0
2018-Feb-13 21:47N 11°02' W 074°49'0 0.0
2018-Feb-13 21:29N 11°02' W 074°49'0 0.0
2018-Feb-13 20:59N 11°02' W 074°49'0 0.0
2018-Feb-13 20:26N 11°02' W 074°49'0 0.0
2018-Feb-13 19:59N 11°02' W 074°49'0 0.0
2018-Feb-13 19:30N 11°02' W 074°49'0 0.0
2018-Feb-13 19:00N 11°02' W 074°49'0 0.0
2018-Feb-13 18:30N 11°02' W 074°49'0 0.0
2018-Feb-13 18:00N 11°02' W 074°49'0 0.0
2018-Feb-13 17:30N 11°02' W 074°49'0 0.0
2018-Feb-13 17:00N 11°02' W 074°49'0 0.0
2018-Feb-13 16:30N 11°02' W 074°49'0 0.0
2018-Feb-13 16:00N 11°02' W 074°49'0 0.0
2018-Feb-13 15:30N 11°02' W 074°49'0 0.0
2018-Feb-13 15:01N 11°02' W 074°49'0 0.0
2018-Feb-13 14:21N 11°02' W 074°49'0 0.0
2018-Feb-13 13:58N 11°02' W 074°49'0 0.0
2018-Feb-13 13:31N 11°02' W 074°49'0 0.0
2018-Feb-13 12:59N 11°02' W 074°49'0 0.0
2018-Feb-13 12:30N 11°02' W 074°49'0 0.0
2018-Feb-12 21:57N 11°02' W 074°49'0 0.0
2018-Feb-12 21:25N 11°02' W 074°49'0 0.0
2018-Feb-12 20:49N 11°02' W 074°49'0 0.0
2018-Feb-12 20:26N 11°02' W 074°49'0 0.0
2018-Feb-12 20:00N 11°02' W 074°49'0 0.0
2018-Feb-12 19:29N 11°02' W 074°49'  

Dump ship's entire track history